Terminal Aerodrome Forecast
Issued by NWS San Angelo, TX

Home | Current Version | Previous Version | Text Only | Print | Product List | Glossary On
Versions: 1 2 3 4 5 6 7 8 9 10 11 12 13 14 15 16
000
FTUS44 KSJT 292300
TAFSJT
TAF
KSJT 292334Z 3000/3024 13006KT P6SM SCT070 BKN120
      TEMPO 3000/3002 VRB20G30KT -TSRA BKN050CB
     FM300200 15006KT P6SM BKN250
     FM301500 17006KT P6SM SCT060=

USA.gov is the U.S. government's official web portal to all federal, state and local government web resources and services.